logo tempoitalia

Diretta Meteo Siauliai Intl, Lituanialunedì 31 agosto ore 08:20

Mappa
Sereno 17 °C Sereno 24 Ore: T.min 15 T.max 24
Ponente Sud/Sud-Ovest Km/h 16.7 Punto di rugiada: 13 °C Umidità: 77% Visibilità: 10 Km
Il sole sorge alle: 06:29 Il sole tramonta alle: 20:24
31 Agosto 2026 08:20 tempo osservato: Sereno Sereno 17 77 1011 vento: Nord S/SO 16.7
31 Agosto 2026 07:50 tempo osservato: Sereno Sereno 17 82 1011 vento: Nord S/SO 14.8
31 Agosto 2026 07:20 tempo osservato: Sereno Sereno 16 82 1011 vento: Nord S 18.5
31 Agosto 2026 06:50 tempo osservato: Sereno Sereno 15 87 1011 vento: Nord S 16.7
31 Agosto 2026 06:20 tempo osservato: Sereno Sereno 16 82 1011 vento: Nord S 16.7
31 Agosto 2026 05:50 tempo osservato: Sereno Sereno 16 82 1011 vento: Nord S 18.5
31 Agosto 2026 04:50 tempo osservato: Sereno Sereno 17 82 1011 vento: Nord S 14.8
31 Agosto 2026 04:20 tempo osservato: Sereno Sereno 17 77 1011 vento: Nord S 13
31 Agosto 2026 03:50 tempo osservato: Sereno Sereno 17 77 1011 vento: Nord S 16.7
31 Agosto 2026 03:20 tempo osservato: Sereno Sereno 17 77 1012 vento: Nord S 14.8
31 Agosto 2026 02:50 tempo osservato: Sereno Sereno 18 72 1012 vento: Nord S 18.5
31 Agosto 2026 02:20 tempo osservato: Molto Nuvoloso Molto Nuvoloso 18 72 1012 vento: Nord S 16.7
31 Agosto 2026 01:50 tempo osservato: Sereno Sereno 17 77 1012 vento: Nord S 14.8
31 Agosto 2026 01:20 tempo osservato: Sereno Sereno 17 77 1012 vento: Nord S 16.7
31 Agosto 2026 00:50 tempo osservato: Sereno Sereno 18 72 1011 vento: Nord S/SE 18.5
31 Agosto 2026 00:20 tempo osservato: Molto Nuvoloso Molto Nuvoloso 18 77 1012 vento: Nord S/SE 18.5
30 Agosto 2026 23:50 tempo osservato: Sereno Sereno 17 82 1012 vento: Nord S 14.8
30 Agosto 2026 23:20 tempo osservato: Sereno Sereno 18 77 1012 vento: Nord S 14.8
30 Agosto 2026 22:50 tempo osservato: Sereno Sereno 18 82 1012 vento: Nord S 9.3
30 Agosto 2026 22:20 tempo osservato: Molto Nuvoloso Molto Nuvoloso 18 82 1012 vento: Nord S 7.4
30 Agosto 2026 21:50 tempo osservato: Pioggia Pioggia 19 72 1013 vento: Nord SO 13
30 Agosto 2026 21:20 tempo osservato: Pioggia Pioggia 20 68 1013 vento: Nord S 14.8
30 Agosto 2026 20:50 tempo osservato: Sereno Sereno 21 64 1012 vento: Nord S 14.8
30 Agosto 2026 20:20 tempo osservato: Sereno Sereno 21 64 1012 vento: Nord S 11.1
30 Agosto 2026 19:50 tempo osservato: Sereno Sereno 21 64 1012 vento: Nord S 11.1
30 Agosto 2026 19:20 tempo osservato: Sereno Sereno 22 60 1012 vento: Nord S 11.1
30 Agosto 2026 18:50 tempo osservato: Sereno Sereno 22 60 1012 vento: Nord S 11.1
30 Agosto 2026 18:20 tempo osservato: Sereno Sereno 22 56 1012 vento: Nord S/SO 13
30 Agosto 2026 17:50 tempo osservato: Sereno Sereno 23 53 1012 vento: Nord S/SO 18.5
30 Agosto 2026 17:20 tempo osservato: Sereno Sereno 24 50 1013 vento: Nord S/SO 22.2
30 Agosto 2026 16:50 tempo osservato: Poco Nuvoloso Poco Nuvoloso 24 50 1013 vento: Nord S/SO 20.3
30 Agosto 2026 16:20 tempo osservato: Poco Nuvoloso Poco Nuvoloso 24 53 1013 vento: Nord S/SO 16.7
30 Agosto 2026 15:50 tempo osservato: Poco Nuvoloso Poco Nuvoloso 23 56 1013 vento: Nord S/SO 20.3
30 Agosto 2026 15:20 tempo osservato: Poco Nuvoloso Poco Nuvoloso 24 57 1013 vento: Nord S/SO 16.7
30 Agosto 2026 14:50 tempo osservato: Sereno Sereno 22 60 1013 vento: Nord S/SO 22.2
30 Agosto 2026 14:20 tempo osservato: Poco Nuvoloso Poco Nuvoloso 22 60 1013 vento: Nord S/SO 20.3
30 Agosto 2026 13:50 tempo osservato: Poco Nuvoloso Poco Nuvoloso 22 64 1013 vento: Nord S/SO 20.3
30 Agosto 2026 13:20 tempo osservato: Poco Nuvoloso Poco Nuvoloso 22 60 1013 vento: Nord S 18.5
30 Agosto 2026 12:50 tempo osservato: Sereno Sereno 20 68 1013 vento: Nord S/SO 16.7
30 Agosto 2026 12:20 tempo osservato: Poco Nuvoloso Poco Nuvoloso 19 77 1013 vento: Nord S/SO 20.3
30 Agosto 2026 11:50 tempo osservato: Nuvoloso Nuvoloso 18 77 1013 vento: Nord S/SO 20.3
30 Agosto 2026 11:20 tempo osservato: Molto Nuvoloso Molto Nuvoloso 18 77 1013 vento: Nord S/SO 20.3
30 Agosto 2026 10:50 tempo osservato: Molto Nuvoloso Molto Nuvoloso 17 82 1013 vento: Nord S/SO 18.5
30 Agosto 2026 10:20 tempo osservato: Molto Nuvoloso Molto Nuvoloso 16 87 1013 vento: Nord S/SO 16.7
30 Agosto 2026 09:50 tempo osservato: Molto Nuvoloso Molto Nuvoloso 16 87 1013 vento: Nord SO 20.3
30 Agosto 2026 09:20 tempo osservato: Molto Nuvoloso Molto Nuvoloso 16 87 1012 vento: Nord S/SO 20.3
30 Agosto 2026 08:50 tempo osservato: Molto Nuvoloso Molto Nuvoloso 15 93 1012 vento: Nord S 18.5